Time;durP1;ratioP1;P1;durP2;ratioP2;P2;SDS_P1;SDS_P2;PMS_P1;PMS_P2;Temp;Humidity;BMP_temperature;BMP_pressure;BME280_temperature;BME280_humidity;BME280_pressure;Samples;Min_cycle;Max_cycle;Signal;HPM_P1;HPM_P2
2021/12/24 00:01:45;;;;;;;682.70;626.30;;;9.00;99.90;;;;;;4993345;28;20199;-80
2021/12/24 00:04:12;;;;;;;686.00;629.43;;;9.00;99.90;;;;;;4985528;28;20576;-80
2021/12/24 00:06:38;;;;;;;691.60;635.57;;;9.10;99.90;;;;;;4969986;28;20188;-81
2021/12/24 00:09:05;;;;;;;686.90;630.57;;;9.10;99.90;;;;;;5003387;28;20196;-82
2021/12/24 00:11:34;;;;;;;692.63;635.97;;;9.10;99.90;;;;;;5007982;28;20985;-79
2021/12/24 00:14:02;;;;;;;688.07;631.17;;;9.10;99.90;;;;;;4985825;28;20271;-81
2021/12/24 00:16:39;;;;;;;694.37;637.60;;;9.10;99.90;;;;;;4977999;28;20202;-80
2021/12/24 00:35:36;;;;;;;702.37;645.53;;;9.40;99.90;;;;;;4954836;28;20196;-80
2021/12/24 00:38:05;;;;;;;703.13;646.00;;;9.40;99.90;;;;;;4964227;28;20723;-80
2021/12/24 00:40:41;;;;;;;697.10;639.80;;;9.50;99.90;;;;;;4981365;28;20251;-81
2021/12/24 00:43:07;;;;;;;692.43;634.60;;;9.50;99.90;;;;;;4981441;28;20204;-80
2021/12/24 00:45:37;;;;;;;693.00;635.67;;;9.50;99.90;;;;;;4972812;28;20184;-80
2021/12/24 00:48:04;;;;;;;689.90;632.60;;;9.60;99.90;;;;;;4971905;28;20550;-78
2021/12/24 00:51:18;;;;;;;695.40;638.17;;;9.60;99.90;;;;;;4963403;28;20188;-81
2021/12/24 00:56:13;;;;;;;699.23;641.80;;;9.80;99.90;;;;;;4971637;28;20196;-80
2021/12/24 00:58:39;;;;;;;700.93;643.33;;;9.80;99.90;;;;;;4988180;28;20222;-80
2021/12/24 01:01:08;;;;;;;695.27;638.80;;;9.80;99.90;;;;;;4955965;28;20279;-80
2021/12/24 01:03:34;;;;;;;684.77;628.30;;;9.90;99.90;;;;;;4981699;28;20215;-80
2021/12/24 01:05:59;;;;;;;686.17;629.53;;;9.90;99.90;;;;;;4955014;28;20196;-79
2021/12/24 01:08:26;;;;;;;685.80;629.37;;;9.90;99.90;;;;;;4948017;28;20207;-81
2021/12/24 01:10:56;;;;;;;683.53;627.63;;;10.00;99.90;;;;;;4955859;28;20200;-80
2021/12/24 01:13:23;;;;;;;684.80;628.70;;;10.00;99.90;;;;;;4963702;28;20200;-80
2021/12/24 01:16:00;;;;;;;599.07;548.20;;;10.00;99.90;;;;;;4949765;28;20193;-79
2021/12/24 01:27:10;;;;;;;548.43;501.67;;;10.10;99.90;;;;;;4987950;28;20239;-79
2021/12/24 01:40:37;;;;;;;507.47;465.37;;;10.20;99.90;;;;;;4990208;28;20234;-80
2021/12/24 01:43:03;;;;;;;497.20;455.20;;;10.20;99.90;;;;;;4974931;28;20203;-81
2021/12/24 01:45:35;;;;;;;492.13;451.80;;;10.20;99.90;;;;;;4990827;28;20275;-81
2021/12/24 01:48:06;;;;;;;486.67;446.47;;;10.20;99.90;;;;;;4983320;28;20180;-80
2021/12/24 01:50:33;;;;;;;481.87;441.77;;;10.20;99.90;;;;;;4982710;28;20184;-80
2021/12/24 01:53:01;;;;;;;476.57;438.27;;;10.30;99.90;;;;;;4985068;28;20215;-79
2021/12/24 01:55:28;;;;;;;473.70;435.97;;;10.20;99.90;;;;;;4983857;28;20538;-81
2021/12/24 01:57:54;;;;;;;468.50;431.67;;;10.20;99.90;;;;;;4986684;28;20212;-80
2021/12/24 02:00:26;;;;;;;469.87;433.17;;;10.30;99.90;;;;;;4992816;28;20193;-79
2021/12/24 02:02:52;;;;;;;463.33;426.00;;;10.20;99.90;;;;;;5002895;28;20184;-80
2021/12/24 02:05:18;;;;;;;456.97;420.70;;;10.20;99.90;;;;;;4993718;28;20197;-81
2021/12/24 02:07:44;;;;;;;448.73;413.10;;;10.20;99.90;;;;;;4987151;28;20188;-79
2021/12/24 02:10:12;;;;;;;443.03;407.73;;;10.20;99.90;;;;;;4971919;28;20195;-79
2021/12/24 02:12:38;;;;;;;443.57;408.87;;;10.20;99.90;;;;;;4994010;28;20231;-80
2021/12/24 02:15:10;;;;;;;438.17;404.03;;;10.20;99.90;;;;;;4993147;28;20192;-79
2021/12/24 02:28:28;;;;;;;414.80;383.57;;;10.10;99.90;;;;;;5082219;28;20227;-79
2021/12/24 02:30:55;;;;;;;409.47;378.43;;;10.10;99.90;;;;;;5081625;28;20645;-79
2021/12/24 02:33:20;;;;;;;399.37;368.77;;;10.10;99.90;;;;;;5096558;28;20650;-80
2021/12/24 02:35:46;;;;;;;388.00;359.40;;;10.00;99.90;;;;;;5045652;28;20285;-80
2021/12/24 02:38:12;;;;;;;389.23;359.80;;;10.00;99.90;;;;;;5097077;28;20346;-80
2021/12/24 02:40:38;;;;;;;388.17;358.63;;;9.90;99.90;;;;;;5061622;28;20348;-80
2021/12/24 02:43:04;;;;;;;382.40;353.93;;;9.90;99.90;;;;;;5045846;28;20322;-81
2021/12/24 02:45:34;;;;;;;384.90;356.20;;;9.90;99.90;;;;;;5077881;28;20560;-81
2021/12/24 02:55:58;;;;;;;363.80;336.50;;;9.90;99.90;;;;;;5079166;28;20192;-80
2021/12/24 02:58:24;;;;;;;361.50;335.23;;;9.90;99.90;;;;;;5061955;28;20205;-80
2021/12/24 03:00:49;;;;;;;362.60;336.27;;;9.90;99.90;;;;;;5062080;28;20341;-80
2021/12/24 03:03:15;;;;;;;359.47;332.80;;;10.00;99.90;;;;;;5095743;28;20206;-79
2021/12/24 03:05:42;;;;;;;354.27;329.00;;;9.90;99.90;;;;;;5076318;28;20184;-81
2021/12/24 03:08:08;;;;;;;348.07;322.47;;;9.90;99.90;;;;;;5076976;28;20196;-79
2021/12/24 03:10:35;;;;;;;337.70;313.77;;;9.90;99.90;;;;;;5098004;28;20762;-81
2021/12/24 03:13:02;;;;;;;334.43;311.13;;;9.90;99.90;;;;;;5076550;28;20200;-81
2021/12/24 03:15:28;;;;;;;324.77;302.33;;;9.90;99.90;;;;;;5075777;28;20178;-81
2021/12/24 03:17:57;;;;;;;314.67;292.97;;;9.90;99.90;;;;;;5076543;28;20204;-81
2021/12/24 03:20:24;;;;;;;311.47;290.13;;;9.80;99.90;;;;;;5040008;28;20773;-80
2021/12/24 03:23:10;;;;;;;296.97;277.00;;;9.90;99.90;;;;;;5073697;28;20197;-79
2021/12/24 03:25:36;;;;;;;293.67;273.97;;;9.80;99.90;;;;;;5073851;28;20204;-80
2021/12/24 03:28:02;;;;;;;292.67;273.23;;;9.80;99.90;;;;;;5073334;28;20297;-80
2021/12/24 03:30:29;;;;;;;286.33;267.23;;;9.90;99.90;;;;;;5065947;28;20193;-80
2021/12/24 03:32:55;;;;;;;281.20;262.50;;;9.90;99.90;;;;;;5059168;28;20186;-80
2021/12/24 03:35:20;;;;;;;279.77;260.30;;;9.90;99.90;;;;;;5044095;28;20686;-79
2021/12/24 03:37:46;;;;;;;276.27;257.93;;;9.90;99.90;;;;;;5058165;28;20261;-81
2021/12/24 03:40:12;;;;;;;266.23;249.30;;;9.90;99.90;;;;;;5058814;28;20288;-79
2021/12/24 03:42:41;;;;;;;268.93;251.57;;;9.90;99.90;;;;;;5059780;28;20233;-80
2021/12/24 03:45:21;;;;;;;265.07;247.60;;;9.90;99.90;;;;;;5027051;28;20545;-80
2021/12/24 03:47:54;;;;;;;261.27;244.37;;;9.90;99.90;;;;;;5059500;28;20273;-80
2021/12/24 03:50:19;;;;;;;261.47;244.30;;;9.90;99.90;;;;;;5044304;28;20186;-79
2021/12/24 03:53:04;;;;;;;256.63;239.97;;;9.90;99.90;;;;;;5060077;28;20217;-80
2021/12/24 03:55:30;;;;;;;254.97;238.33;;;9.90;99.90;;;;;;5057861;28;20736;-80
2021/12/24 03:57:56;;;;;;;256.17;239.03;;;9.90;99.90;;;;;;5059929;28;20262;-80
2021/12/24 04:00:29;;;;;;;252.27;235.63;;;9.90;99.90;;;;;;5058748;28;20254;-80
2021/12/24 04:02:55;;;;;;;248.03;231.67;;;9.90;99.90;;;;;;5061691;28;20253;-79
2021/12/24 04:05:21;;;;;;;238.73;222.73;;;9.90;99.90;;;;;;5059580;28;20257;-80
2021/12/24 04:07:48;;;;;;;233.20;217.60;;;9.90;99.90;;;;;;5043784;28;20193;-79
2021/12/24 04:10:33;;;;;;;232.37;216.33;;;9.90;99.90;;;;;;5059796;28;20178;-80
2021/12/24 04:12:58;;;;;;;231.13;215.73;;;9.80;99.90;;;;;;5046236;28;20210;-79
2021/12/24 04:15:24;;;;;;;230.93;215.53;;;9.80;99.90;;;;;;5060299;28;20503;-80
2021/12/24 04:17:50;;;;;;;218.80;203.63;;;9.80;99.90;;;;;;5061440;28;20550;-81
2021/12/24 04:25:44;;;;;;;214.07;199.07;;;9.70;99.90;;;;;;5058375;28;20224;-80
2021/12/24 04:28:10;;;;;;;212.53;197.77;;;9.70;99.90;;;;;;5058659;28;20229;-80
2021/12/24 04:30:43;;;;;;;209.07;195.53;;;9.70;99.90;;;;;;5058862;28;20201;-80
2021/12/24 04:33:17;;;;;;;209.43;195.43;;;9.70;99.90;;;;;;5059682;28;20505;-80
2021/12/24 04:35:57;;;;;;;203.73;190.30;;;9.70;99.90;;;;;;5061498;28;20193;-81
2021/12/24 04:38:32;;;;;;;201.87;188.80;;;9.70;99.90;;;;;;5060278;28;20230;-81
2021/12/24 04:52:17;;;;;;;196.07;182.53;;;9.60;99.90;;;;;;5058977;28;20193;-81
2021/12/24 05:03:03;;;;;;;187.13;174.77;;;9.60;99.90;;;;;;5056464;28;20690;-80
2021/12/24 05:05:49;;;;;;;184.80;172.50;;;9.60;99.90;;;;;;5056744;28;20582;-80
2021/12/24 05:08:28;;;;;;;175.17;163.53;;;9.60;99.90;;;;;;5057838;28;20182;-80
2021/12/24 05:10:53;;;;;;;180.73;167.30;;;9.60;99.90;;;;;;5057868;28;20591;-80
2021/12/24 05:13:21;;;;;;;171.03;159.07;;;9.60;99.90;;;;;;5056513;28;20232;-80
2021/12/24 05:15:52;;;;;;;174.27;162.37;;;9.60;99.90;;;;;;5058355;28;20239;-81
2021/12/24 05:18:32;;;;;;;176.87;164.07;;;9.60;99.90;;;;;;5057976;28;20199;-81
2021/12/24 05:23:42;;;;;;;174.17;162.37;;;9.60;99.90;;;;;;5037625;28;20921;-80
2021/12/24 05:26:09;;;;;;;170.67;159.27;;;9.60;99.90;;;;;;5022085;28;20198;-81
2021/12/24 05:28:37;;;;;;;169.47;157.43;;;9.60;99.90;;;;;;5037982;28;20655;-79
2021/12/24 05:31:02;;;;;;;168.17;156.63;;;9.60;99.90;;;;;;5035970;28;20198;-81
2021/12/24 05:33:28;;;;;;;166.83;154.73;;;9.60;99.90;;;;;;5035976;28;20660;-80
2021/12/24 05:35:54;;;;;;;166.73;154.80;;;9.60;99.90;;;;;;5038556;28;20182;-81
2021/12/24 05:38:20;;;;;;;162.33;151.80;;;9.60;99.90;;;;;;5036780;28;20271;-80
2021/12/24 05:40:46;;;;;;;155.77;145.10;;;9.60;99.90;;;;;;5037261;28;20193;-80
2021/12/24 05:43:11;;;;;;;159.33;148.70;;;9.50;99.90;;;;;;5038450;28;20472;-81
2021/12/24 05:45:37;;;;;;;160.63;149.33;;;9.50;99.90;;;;;;5038338;28;20191;-79
2021/12/24 05:48:03;;;;;;;158.87;148.30;;;9.60;99.90;;;;;;5037026;28;20279;-81
2021/12/24 05:50:30;;;;;;;157.50;146.83;;;9.60;99.90;;;;;;5034633;28;20274;-79
2021/12/24 05:52:56;;;;;;;151.47;140.57;;;9.50;99.90;;;;;;5020705;28;20186;-81
2021/12/24 05:55:21;;;;;;;149.30;139.20;;;9.50;99.90;;;;;;5037498;28;20563;-80
2021/12/24 05:57:47;;;;;;;150.17;140.53;;;9.60;99.90;;;;;;5036226;28;20233;-80
2021/12/24 06:00:13;;;;;;;154.03;143.50;;;9.50;99.90;;;;;;5021094;28;20189;-79
2021/12/24 06:02:39;;;;;;;154.53;143.63;;;9.50;99.90;;;;;;5037900;28;20236;-81
2021/12/24 06:05:05;;;;;;;154.07;143.63;;;9.50;99.90;;;;;;5035165;28;20199;-81
2021/12/24 06:07:31;;;;;;;154.10;143.90;;;9.60;99.90;;;;;;5021633;28;20269;-81
2021/12/24 06:09:57;;;;;;;152.33;141.90;;;9.50;99.90;;;;;;5038420;28;20613;-80
2021/12/24 06:12:22;;;;;;;149.80;139.93;;;9.60;99.90;;;;;;5005189;28;20305;-80
2021/12/24 06:14:53;;;;;;;148.83;138.80;;;9.50;99.90;;;;;;5037656;28;20194;-80
2021/12/24 06:17:22;;;;;;;147.60;137.63;;;9.50;99.90;;;;;;5007510;28;20658;-81
2021/12/24 06:19:47;;;;;;;144.77;134.47;;;9.50;99.90;;;;;;5062054;28;20237;-79
2021/12/24 06:22:14;;;;;;;145.87;136.03;;;9.50;99.90;;;;;;5045442;28;20186;-80
2021/12/24 06:24:39;;;;;;;145.20;134.73;;;9.40;99.90;;;;;;5078583;28;20181;-80
2021/12/24 06:27:05;;;;;;;145.47;136.30;;;9.40;99.90;;;;;;5062449;28;20287;-81
2021/12/24 06:29:31;;;;;;;144.30;134.60;;;9.30;99.90;;;;;;5026534;28;20201;-81
2021/12/24 06:31:57;;;;;;;145.53;135.67;;;9.30;99.90;;;;;;5078756;28;20681;-81
2021/12/24 06:34:26;;;;;;;145.10;135.30;;;9.30;99.90;;;;;;5045341;28;20247;-80
2021/12/24 06:36:53;;;;;;;144.23;134.37;;;9.30;99.90;;;;;;5059218;28;20316;-80
2021/12/24 06:39:19;;;;;;;146.43;135.97;;;9.20;99.90;;;;;;5059662;28;20221;-81
2021/12/24 06:41:45;;;;;;;145.07;135.13;;;9.20;99.90;;;;;;5028525;28;20208;-80
2021/12/24 06:44:12;;;;;;;151.83;141.63;;;9.20;99.90;;;;;;5061275;28;20185;-81
2021/12/24 06:46:40;;;;;;;148.33;138.40;;;9.20;99.90;;;;;;5029580;28;20193;-81
2021/12/24 06:49:06;;;;;;;145.47;135.77;;;9.20;99.90;;;;;;5060014;28;20267;-80
2021/12/24 06:51:32;;;;;;;150.13;140.87;;;9.20;99.90;;;;;;5028062;28;20203;-80
2021/12/24 06:53:58;;;;;;;150.77;141.07;;;9.10;99.90;;;;;;5060840;28;20694;-81
2021/12/24 06:56:23;;;;;;;144.47;134.50;;;9.20;99.90;;;;;;5027175;28;20668;-80
2021/12/24 06:58:49;;;;;;;142.70;132.80;;;9.10;99.90;;;;;;5060165;28;20301;-80
2021/12/24 07:01:15;;;;;;;146.63;136.17;;;9.20;99.90;;;;;;5059490;28;20758;-80
2021/12/24 07:03:41;;;;;;;144.63;135.07;;;9.20;99.90;;;;;;5060080;28;20672;-81
2021/12/24 07:06:08;;;;;;;141.13;131.10;;;9.20;99.90;;;;;;5046090;28;20197;-80
2021/12/24 07:08:34;;;;;;;143.07;133.53;;;9.20;99.90;;;;;;5030805;28;20681;-79
2021/12/24 07:11:00;;;;;;;145.13;135.13;;;9.20;99.90;;;;;;5063743;28;20220;-81
2021/12/24 07:13:26;;;;;;;145.33;135.47;;;9.20;99.90;;;;;;5048543;28;20243;-81
2021/12/24 07:15:52;;;;;;;144.23;133.90;;;9.20;99.90;;;;;;5081573;28;20680;-80
2021/12/24 07:18:19;;;;;;;142.03;132.67;;;9.20;99.90;;;;;;5047323;28;20294;-80
2021/12/24 07:20:44;;;;;;;142.90;133.63;;;9.20;99.90;;;;;;5065233;28;20224;-81
2021/12/24 07:23:10;;;;;;;140.93;130.83;;;9.20;99.90;;;;;;5047987;28;20204;-80
2021/12/24 07:25:36;;;;;;;138.20;128.93;;;9.20;99.90;;;;;;5063403;28;20173;-81
2021/12/24 07:28:02;;;;;;;140.93;131.07;;;9.20;99.90;;;;;;5063691;28;20205;-81
2021/12/24 07:30:28;;;;;;;142.07;132.37;;;9.20;99.90;;;;;;5080551;28;20638;-80
2021/12/24 07:32:53;;;;;;;142.30;133.13;;;9.20;99.90;;;;;;5046010;28;20235;-79
2021/12/24 07:35:19;;;;;;;135.43;126.57;;;9.20;99.90;;;;;;5065162;28;20276;-79
2021/12/24 07:37:45;;;;;;;139.17;129.77;;;9.20;99.90;;;;;;5064200;28;20189;-80
2021/12/24 07:40:17;;;;;;;139.60;130.23;;;9.20;99.90;;;;;;5062172;28;20650;-80
2021/12/24 07:42:47;;;;;;;141.80;131.83;;;9.20;99.90;;;;;;5063873;28;20201;-81
2021/12/24 07:45:14;;;;;;;141.57;130.97;;;9.20;99.90;;;;;;5047955;28;20195;-80
2021/12/24 07:47:42;;;;;;;142.43;131.97;;;9.20;99.90;;;;;;5047214;28;20181;-81
2021/12/24 07:53:11;;;;;;;139.97;130.07;;;9.20;99.90;;;;;;5039140;28;20205;-80
2021/12/24 07:55:38;;;;;;;138.37;128.90;;;9.30;99.90;;;;;;5029633;28;20203;-81
2021/12/24 07:58:06;;;;;;;134.37;124.90;;;9.30;99.90;;;;;;5063760;28;20335;-81
2021/12/24 08:00:32;;;;;;;136.37;126.93;;;9.40;99.90;;;;;;5062972;28;20238;-81
2021/12/24 08:03:01;;;;;;;129.90;120.90;;;9.40;99.90;;;;;;5047801;28;20200;-81
2021/12/24 08:05:26;;;;;;;137.23;128.13;;;9.40;99.90;;;;;;5081249;28;20199;-79
2021/12/24 08:07:54;;;;;;;134.00;125.63;;;9.40;99.90;;;;;;5061602;28;20285;-80
2021/12/24 08:10:24;;;;;;;133.73;125.17;;;9.30;99.90;;;;;;5062973;28;21191;-80
2021/12/24 08:12:51;;;;;;;133.47;123.97;;;9.30;99.90;;;;;;5047363;28;20300;-79
2021/12/24 08:15:17;;;;;;;132.60;123.77;;;9.20;99.90;;;;;;5043706;28;20189;-80
2021/12/24 08:17:44;;;;;;;131.23;122.70;;;9.20;99.90;;;;;;5062943;28;20619;-79
2021/12/24 08:20:10;;;;;;;130.37;122.03;;;9.20;99.90;;;;;;5044155;28;20264;-81
2021/12/24 08:22:36;;;;;;;132.00;122.97;;;9.20;99.90;;;;;;5081007;28;20197;-80
2021/12/24 08:25:05;;;;;;;130.87;122.23;;;9.20;99.90;;;;;;5045305;28;20262;-80
2021/12/24 08:27:31;;;;;;;129.77;121.23;;;9.10;99.90;;;;;;5060446;28;20204;-81
2021/12/24 08:29:57;;;;;;;130.70;121.87;;;9.20;99.90;;;;;;5045581;28;20222;-80
2021/12/24 08:32:23;;;;;;;132.90;124.17;;;9.20;99.90;;;;;;5062837;28;20296;-81
2021/12/24 08:34:51;;;;;;;130.77;122.07;;;9.20;99.90;;;;;;5063906;28;20223;-81
2021/12/24 08:37:17;;;;;;;132.30;123.40;;;9.20;99.90;;;;;;5048671;28;20269;-81
2021/12/24 08:39:43;;;;;;;133.97;124.47;;;9.20;99.90;;;;;;5061101;28;20318;-80
2021/12/24 08:42:09;;;;;;;132.53;123.03;;;9.10;99.90;;;;;;5029697;28;20205;-81
2021/12/24 08:44:37;;;;;;;135.40;126.07;;;9.10;99.90;;;;;;5062513;28;20182;-81
2021/12/24 08:47:05;;;;;;;130.97;122.87;;;9.10;99.90;;;;;;5059376;28;20232;-79
2021/12/24 08:49:31;;;;;;;128.30;119.37;;;9.10;99.90;;;;;;5047858;28;20189;-81
2021/12/24 08:51:59;;;;;;;129.87;121.33;;;9.10;99.90;;;;;;5046511;28;20182;-80
2021/12/24 08:54:25;;;;;;;132.23;122.83;;;9.20;99.90;;;;;;5080275;28;20191;-80
2021/12/24 08:56:55;;;;;;;131.23;122.27;;;9.20;99.90;;;;;;5080316;28;20709;-80
2021/12/24 08:59:23;;;;;;;133.43;124.00;;;9.20;99.90;;;;;;5060972;28;20224;-80
2021/12/24 09:01:50;;;;;;;133.83;124.37;;;9.20;99.90;;;;;;5044181;28;20193;-79
2021/12/24 09:04:15;;;;;;;128.87;120.17;;;9.20;99.90;;;;;;5061069;28;20206;-80
2021/12/24 09:06:41;;;;;;;129.77;121.37;;;9.30;99.90;;;;;;5061809;28;20190;-81
2021/12/24 09:09:08;;;;;;;131.93;123.03;;;9.20;99.90;;;;;;5080424;28;20247;-80
2021/12/24 09:11:34;;;;;;;129.63;121.00;;;9.20;99.90;;;;;;5063404;28;20217;-80
2021/12/24 09:14:00;;;;;;;131.10;122.20;;;9.30;99.90;;;;;;5044357;28;20220;-81
2021/12/24 09:16:26;;;;;;;132.27;123.30;;;9.30;99.90;;;;;;5046777;28;20320;-81
2021/12/24 09:18:59;;;;;;;128.13;119.67;;;9.30;99.90;;;;;;5045306;28;20263;-80
2021/12/24 09:21:26;;;;;;;132.00;122.57;;;9.20;99.90;;;;;;5030517;28;20204;-80
2021/12/24 09:23:53;;;;;;;129.80;121.53;;;9.20;99.90;;;;;;5061552;28;20189;-82
2021/12/24 09:26:26;;;;;;;130.17;121.70;;;9.20;99.90;;;;;;5062122;28;20552;-80
2021/12/24 09:28:52;;;;;;;131.13;122.17;;;9.30;99.90;;;;;;5062283;28;20186;-80
2021/12/24 09:31:18;;;;;;;127.03;118.00;;;9.30;99.90;;;;;;5059881;28;20302;-80
2021/12/24 09:33:43;;;;;;;125.87;117.00;;;9.30;99.90;;;;;;5043072;28;20275;-81
2021/12/24 09:36:09;;;;;;;131.13;121.90;;;9.30;99.90;;;;;;5043397;28;20186;-81
2021/12/24 09:38:35;;;;;;;128.27;119.33;;;9.30;99.90;;;;;;5029531;28;20326;-80
2021/12/24 09:41:01;;;;;;;128.03;119.30;;;9.30;99.90;;;;;;5027396;28;20773;-80
2021/12/24 09:43:28;;;;;;;128.63;120.50;;;9.30;99.90;;;;;;5061077;28;20269;-80
2021/12/24 09:45:54;;;;;;;124.20;115.40;;;9.30;99.90;;;;;;5060542;28;20708;-81
2021/12/24 09:48:19;;;;;;;124.37;116.43;;;9.30;99.90;;;;;;5061139;28;20212;-81
2021/12/24 09:50:46;;;;;;;124.97;117.03;;;9.30;99.90;;;;;;5044474;28;20645;-80
2021/12/24 09:53:12;;;;;;;128.97;119.63;;;9.40;99.90;;;;;;5044577;28;20197;-81
2021/12/24 09:55:38;;;;;;;124.87;116.40;;;9.40;99.90;;;;;;5062087;28;21086;-79
2021/12/24 09:58:04;;;;;;;123.30;114.60;;;9.40;99.90;;;;;;5045891;28;20230;-80
2021/12/24 10:00:30;;;;;;;127.00;118.33;;;9.40;99.90;;;;;;5080940;28;21545;-81
2021/12/24 10:02:58;;;;;;;125.60;117.30;;;9.40;99.90;;;;;;5042353;28;20186;-81
2021/12/24 10:05:46;;;;;;;125.33;116.80;;;9.40;99.90;;;;;;5078220;28;20185;-81
2021/12/24 10:08:25;;;;;;;124.43;115.23;;;9.40;99.90;;;;;;5044413;28;20189;-81
2021/12/24 10:10:53;;;;;;;122.23;114.40;;;9.50;99.90;;;;;;5062101;28;20223;-81
2021/12/24 10:13:26;;;;;;;119.90;112.07;;;9.50;99.90;;;;;;5078851;28;20205;-81
2021/12/24 10:16:07;;;;;;;120.90;112.20;;;9.60;99.90;;;;;;5061997;28;20936;-80
2021/12/24 10:18:45;;;;;;;117.77;109.87;;;9.70;99.90;;;;;;5060566;28;20204;-80
2021/12/24 10:21:18;;;;;;;116.43;108.73;;;9.70;99.90;;;;;;5044674;28;20247;-82
2021/12/24 10:23:57;;;;;;;118.73;110.83;;;9.70;99.90;;;;;;5043087;28;20197;-81
2021/12/24 10:26:35;;;;;;;118.50;110.37;;;9.70;99.90;;;;;;5076455;28;20266;-80
2021/12/24 10:29:09;;;;;;;116.97;108.37;;;9.70;99.90;;;;;;5077334;28;20254;-80
2021/12/24 10:31:39;;;;;;;112.87;106.40;;;9.70;99.90;;;;;;5061658;28;20215;-80
2021/12/24 10:34:20;;;;;;;111.50;104.33;;;9.80;99.90;;;;;;5078890;28;20221;-81
2021/12/24 10:37:01;;;;;;;110.57;103.43;;;9.80;99.90;;;;;;5061268;28;20664;-80
2021/12/24 10:39:41;;;;;;;112.87;105.63;;;9.90;99.90;;;;;;5059485;28;20205;-82
2021/12/24 10:42:19;;;;;;;111.00;103.70;;;10.00;99.90;;;;;;5067125;28;20201;-81
2021/12/24 10:44:46;;;;;;;110.63;103.53;;;10.00;99.90;;;;;;5080450;28;20245;-81
2021/12/24 10:47:19;;;;;;;109.17;102.33;;;10.00;99.90;;;;;;5048344;28;20208;-82
2021/12/24 10:55:04;;;;;;;103.03;96.07;;;10.00;99.90;;;;;;5082779;28;20300;-81
2021/12/24 10:57:38;;;;;;;105.10;98.10;;;10.00;99.90;;;;;;5080853;28;20713;-81
2021/12/24 11:00:14;;;;;;;103.80;97.43;;;10.00;99.90;;;;;;5083029;28;20240;-80
2021/12/24 11:02:40;;;;;;;104.50;97.70;;;10.00;99.90;;;;;;5064475;28;20270;-81
2021/12/24 11:05:23;;;;;;;103.50;97.13;;;10.10;99.90;;;;;;5081617;28;20673;-82
2021/12/24 11:07:50;;;;;;;103.13;96.73;;;10.10;99.90;;;;;;5063456;28;20185;-81
2021/12/24 11:10:19;;;;;;;102.67;96.47;;;10.10;99.90;;;;;;5062962;28;20197;-81
2021/12/24 11:12:48;;;;;;;101.63;95.50;;;10.10;99.90;;;;;;5063746;28;20271;-80
2021/12/24 11:15:26;;;;;;;100.50;94.33;;;10.00;99.90;;;;;;5062730;28;20213;-79
2021/12/24 11:17:56;;;;;;;104.63;96.93;;;10.00;99.90;;;;;;5081463;28;20637;-81
2021/12/24 11:20:22;;;;;;;102.97;96.70;;;10.00;99.90;;;;;;5061920;28;20232;-81
2021/12/24 11:22:49;;;;;;;102.23;95.17;;;10.00;99.90;;;;;;5082786;28;20184;-80
2021/12/24 11:25:15;;;;;;;101.70;94.90;;;10.00;99.90;;;;;;5064884;28;20200;-81
2021/12/24 11:27:41;;;;;;;100.73;94.50;;;10.00;99.90;;;;;;5064571;28;20212;-81
2021/12/24 11:30:07;;;;;;;120.93;113.47;;;9.90;99.90;;;;;;5064703;28;20193;-81
2021/12/24 11:32:35;;;;;;;124.53;116.97;;;10.00;99.90;;;;;;5083105;28;20716;-80
2021/12/24 11:35:02;;;;;;;127.10;119.30;;;9.90;99.90;;;;;;5064737;28;20281;-80
2021/12/24 11:37:30;;;;;;;133.40;125.10;;;9.90;99.90;;;;;;5047483;28;20704;-80
2021/12/24 11:39:58;;;;;;;139.23;130.03;;;9.80;99.90;;;;;;5047948;28;20286;-80
2021/12/24 11:42:29;;;;;;;140.40;130.53;;;9.80;99.90;;;;;;5064246;28;20674;-81
2021/12/24 11:44:56;;;;;;;142.40;133.37;;;9.80;99.90;;;;;;5062279;28;20178;-81
2021/12/24 11:47:22;;;;;;;141.27;132.13;;;9.70;99.90;;;;;;5045126;28;20522;-81
2021/12/24 11:49:48;;;;;;;143.43;134.40;;;9.70;99.90;;;;;;5047127;28;20193;-81
2021/12/24 11:52:15;;;;;;;143.43;133.07;;;9.70;99.90;;;;;;5029769;28;20193;-80
2021/12/24 11:54:41;;;;;;;139.50;130.40;;;9.70;99.90;;;;;;5047576;28;20288;-81
2021/12/24 11:57:25;;;;;;;134.97;126.63;;;9.70;99.90;;;;;;5062340;28;20288;-80
2021/12/24 11:59:52;;;;;;;132.73;124.77;;;9.70;99.90;;;;;;5063851;28;20212;-81
2021/12/24 12:02:45;;;;;;;131.23;122.57;;;9.70;99.90;;;;;;5081215;28;20273;-81
2021/12/24 12:05:36;;;;;;;131.90;121.70;;;9.80;99.90;;;;;;5062722;28;20219;-82
2021/12/24 12:08:29;;;;;;;130.10;121.23;;;9.80;99.90;;;;;;5062198;28;20224;-80
2021/12/24 12:11:07;;;;;;;127.97;119.40;;;9.80;99.90;;;;;;5045971;28;20189;-81
2021/12/24 12:13:44;;;;;;;125.30;117.20;;;9.80;99.90;;;;;;5047873;28;20209;-82
2021/12/24 12:16:16;;;;;;;123.33;115.20;;;9.80;99.90;;;;;;5083261;28;20192;-80
2021/12/24 12:18:46;;;;;;;120.70;112.47;;;9.90;99.90;;;;;;5063365;28;20200;-81
2021/12/24 12:21:19;;;;;;;123.77;115.13;;;9.90;99.90;;;;;;5059892;28;20234;-80
2021/12/24 12:26:44;;;;;;;123.73;114.97;;;9.90;99.90;;;;;;5059237;28;20190;-81
2021/12/24 12:29:22;;;;;;;119.80;111.93;;;10.00;99.90;;;;;;5061011;28;20197;-81
2021/12/24 12:31:52;;;;;;;120.47;111.77;;;10.00;99.90;;;;;;5060266;28;20773;-81
2021/12/24 12:34:40;;;;;;;117.30;110.20;;;10.00;99.90;;;;;;5061615;28;20221;-82
2021/12/24 12:37:23;;;;;;;117.93;109.63;;;10.00;99.90;;;;;;5056818;28;20582;-81
2021/12/24 12:39:53;;;;;;;114.37;107.23;;;10.10;99.90;;;;;;5061797;28;20316;-81
2021/12/24 12:42:20;;;;;;;115.63;107.77;;;10.10;99.90;;;;;;5057919;28;20848;-81
2021/12/24 12:44:50;;;;;;;115.27;108.33;;;10.10;99.90;;;;;;5060508;28;20277;-81
2021/12/24 12:47:26;;;;;;;112.73;106.00;;;10.10;99.90;;;;;;5059836;28;20244;-81
2021/12/24 12:50:12;;;;;;;116.47;108.80;;;10.20;99.90;;;;;;5042212;28;20261;-81
2021/12/24 12:52:40;;;;;;;116.73;109.17;;;10.20;99.90;;;;;;5059115;28;20214;-81
2021/12/24 12:55:26;;;;;;;113.67;106.53;;;10.20;99.90;;;;;;5042514;28;20618;-80
2021/12/24 12:57:51;;;;;;;111.23;104.70;;;10.20;99.90;;;;;;5061445;28;20566;-80
2021/12/24 13:00:20;;;;;;;116.23;108.53;;;10.20;99.90;;;;;;5043672;28;20232;-81
2021/12/24 13:03:01;;;;;;;115.40;108.23;;;10.10;99.90;;;;;;5026200;28;20870;-81
2021/12/24 13:05:52;;;;;;;114.93;107.90;;;10.10;99.90;;;;;;5065356;28;20178;-80
2021/12/24 13:08:21;;;;;;;114.40;106.57;;;10.10;99.90;;;;;;5059661;28;20190;-80
2021/12/24 13:11:11;;;;;;;117.37;109.60;;;10.10;99.90;;;;;;5060116;28;20187;-81
2021/12/24 13:13:58;;;;;;;117.33;108.97;;;10.10;99.90;;;;;;5057833;28;20185;-80
2021/12/24 13:16:45;;;;;;;114.67;107.40;;;10.10;99.90;;;;;;5058719;28;20189;-80
2021/12/24 13:25:00;;;;;;;117.90;110.13;;;10.10;99.90;;;;;;5080745;28;20194;-79
2021/12/24 13:27:33;;;;;;;116.47;108.67;;;10.10;99.90;;;;;;5044032;28;20265;-80
2021/12/24 13:30:24;;;;;;;116.10;108.70;;;10.10;99.90;;;;;;5060688;28;20184;-80
2021/12/24 13:33:07;;;;;;;114.60;107.60;;;10.10;99.90;;;;;;5061513;28;20546;-80
2021/12/24 13:35:44;;;;;;;118.87;111.10;;;10.10;99.90;;;;;;5080723;28;20704;-78
2021/12/24 13:38:26;;;;;;;116.37;108.70;;;10.10;99.90;;;;;;5061508;28;20238;-80
2021/12/24 13:40:53;;;;;;;117.23;109.57;;;10.10;99.90;;;;;;5063820;28;20629;-80
2021/12/24 13:43:19;;;;;;;117.27;109.80;;;10.10;99.90;;;;;;5044345;28;20273;-80
2021/12/24 13:45:49;;;;;;;116.50;108.60;;;10.10;99.90;;;;;;5045645;28;20553;-81
2021/12/24 13:48:22;;;;;;;115.30;107.77;;;10.10;99.90;;;;;;5047021;28;20189;-81
2021/12/24 13:56:44;;;;;;;116.27;108.47;;;10.10;99.90;;;;;;5078585;28;20195;-81
2021/12/24 13:59:13;;;;;;;114.33;107.03;;;10.10;99.90;;;;;;5059829;28;20197;-81
2021/12/24 14:01:41;;;;;;;114.13;106.17;;;10.00;99.90;;;;;;5061132;28;20209;-80
2021/12/24 14:04:08;;;;;;;113.57;105.97;;;10.00;99.90;;;;;;5060167;28;20206;-82
2021/12/24 14:06:41;;;;;;;112.27;105.13;;;10.10;99.90;;;;;;5080289;28;20185;-80
2021/12/24 14:09:08;;;;;;;114.03;106.80;;;10.00;99.90;;;;;;5079600;28;20510;-79
2021/12/24 14:11:36;;;;;;;116.13;108.10;;;10.00;99.90;;;;;;5061108;28;20209;-80
2021/12/24 14:14:06;;;;;;;116.43;108.17;;;10.00;99.90;;;;;;5047181;28;20279;-80
2021/12/24 14:16:43;;;;;;;116.47;108.87;;;10.00;99.90;;;;;;5059893;28;20188;-81